createdAt,value
2023-02-25T00:02:03.167Z,2.80
2023-02-25T00:04:32.958Z,2.82
2023-02-25T00:07:22.976Z,2.83
2023-02-25T00:09:54.256Z,2.80
2023-02-25T00:12:24.145Z,2.83
2023-02-25T00:14:52.174Z,2.84
2023-02-25T00:17:20.760Z,2.79
2023-02-25T00:19:50.277Z,2.79
2023-02-25T00:22:21.415Z,2.84
2023-02-25T00:24:53.676Z,2.80
2023-02-25T00:27:22.470Z,2.79
2023-02-25T00:29:54.434Z,2.84
2023-02-25T00:32:23.496Z,2.87
2023-02-25T00:34:52.131Z,2.83
2023-02-25T00:37:20.362Z,2.82
2023-02-25T00:39:48.661Z,2.89
2023-02-25T00:42:17.769Z,2.86
2023-02-25T00:44:47.233Z,2.88
2023-02-25T00:47:17.251Z,2.93
2023-02-25T00:49:47.812Z,2.94
2023-02-25T00:52:16.042Z,2.91
2023-02-25T00:54:44.020Z,2.96
2023-02-25T00:57:12.642Z,3.03
2023-02-25T00:59:41.326Z,2.99
2023-02-25T01:02:10.217Z,2.98
2023-02-25T01:04:38.742Z,3.05
2023-02-25T01:07:08.620Z,3.06
2023-02-25T01:09:37.096Z,3.01
2023-02-25T01:12:05.364Z,3.03
2023-02-25T01:14:33.883Z,3.12
2023-02-25T01:17:03.146Z,3.12
2023-02-25T01:19:34.051Z,3.04
2023-02-25T01:22:02.556Z,3.06
2023-02-25T01:24:33.263Z,3.13
2023-02-25T01:27:02.830Z,3.10
2023-02-25T01:29:35.572Z,3.04
2023-02-25T01:32:04.280Z,3.05
2023-02-25T01:34:33.312Z,3.04
2023-02-25T01:37:06.225Z,2.99
2023-02-25T01:39:37.734Z,3.06
2023-02-25T01:42:13.179Z,3.09
2023-02-25T01:45:12.344Z,3.02
2023-02-25T01:47:40.636Z,3.00
2023-02-25T01:50:10.248Z,3.06
2023-02-25T01:52:38.818Z,3.08
2023-02-25T01:55:09.692Z,3.05
2023-02-25T01:57:38.939Z,3.00
2023-02-25T02:00:12.608Z,3.03
2023-02-25T02:02:44.904Z,3.06
2023-02-25T02:05:13.414Z,3.01
2023-02-25T02:07:43.836Z,2.97
2023-02-25T02:10:12.627Z,2.96
2023-02-25T02:12:43.162Z,2.93
2023-02-25T02:15:13.871Z,2.87
2023-02-25T02:17:56.997Z,2.86
2023-02-25T02:20:44.239Z,2.87
2023-02-25T02:23:41.008Z,2.82
2023-02-25T02:26:37.968Z,2.85
2023-02-25T02:29:28.228Z,2.86
2023-02-25T02:32:15.893Z,2.79
2023-02-25T02:35:05.220Z,2.83
2023-02-25T02:37:44.806Z,2.83
2023-02-25T02:40:19.715Z,2.76
2023-02-25T02:42:51.440Z,2.79
2023-02-25T02:45:27.072Z,2.79
2023-02-25T02:47:59.287Z,2.73
2023-02-25T02:50:40.241Z,2.74
2023-02-25T02:53:16.442Z,2.75
2023-02-25T02:55:47.494Z,2.69
2023-02-25T02:58:23.312Z,2.71
2023-02-25T03:00:55.865Z,2.77
2023-02-25T03:03:36.474Z,2.72
2023-02-25T03:06:17.482Z,2.67
2023-02-25T03:08:59.606Z,2.71
2023-02-25T03:11:27.883Z,2.67
2023-02-25T03:13:59.789Z,2.65
2023-02-25T03:16:53.526Z,2.69
2023-02-25T03:19:30.173Z,2.62
2023-02-25T03:22:01.437Z,2.62
2023-02-25T03:25:02.761Z,2.66
2023-02-25T03:27:39.871Z,2.59
2023-02-25T03:30:13.155Z,2.63
2023-02-25T03:32:47.873Z,2.68
2023-02-25T03:35:19.426Z,2.63
2023-02-25T03:37:50.411Z,2.65
2023-02-25T03:40:19.887Z,2.71
2023-02-25T03:42:54.256Z,2.68
2023-02-25T03:45:22.452Z,2.64
2023-02-25T03:47:50.637Z,2.71
2023-02-25T03:50:28.816Z,2.73
2023-02-25T03:53:19.621Z,2.67
2023-02-25T03:55:52.350Z,2.70
2023-02-25T03:58:21.389Z,2.72
2023-02-25T04:00:58.932Z,2.68
2023-02-25T04:03:27.830Z,2.74
2023-02-25T04:05:56.217Z,2.76
2023-02-25T04:08:24.712Z,2.71
2023-02-25T04:10:52.866Z,2.75
2023-02-25T04:13:26.001Z,2.75
2023-02-25T04:15:54.428Z,2.70
2023-02-25T04:18:27.836Z,2.70
2023-02-25T04:20:56.668Z,2.76
2023-02-25T04:23:24.928Z,2.75
2023-02-25T04:25:53.570Z,2.69
2023-02-25T04:28:23.308Z,2.71
2023-02-25T04:30:51.531Z,2.76
2023-02-25T04:33:20.114Z,2.71
2023-02-25T04:35:49.723Z,2.73
2023-02-25T04:38:18.004Z,2.78
2023-02-25T04:40:47.435Z,2.74
2023-02-25T04:43:17.404Z,2.70
2023-02-25T04:45:47.050Z,2.77
2023-02-25T04:48:16.087Z,2.83
2023-02-25T04:50:44.584Z,2.79
2023-02-25T04:53:14.063Z,2.73
2023-02-25T04:55:42.539Z,2.78
2023-02-25T04:58:10.645Z,2.76
2023-02-25T05:00:40.643Z,2.74
2023-02-25T05:03:09.122Z,2.80
2023-02-25T05:05:37.877Z,2.81
2023-02-25T05:08:09.107Z,2.75
2023-02-25T05:10:38.016Z,2.79
2023-02-25T05:13:06.218Z,2.84
2023-02-25T05:15:37.186Z,2.81
2023-02-25T05:18:06.525Z,2.79
2023-02-25T05:20:34.972Z,2.83
2023-02-25T05:23:03.826Z,2.83
2023-02-25T05:25:33.861Z,2.78
2023-02-25T05:28:02.817Z,2.79
2023-02-25T05:30:31.397Z,2.84
2023-02-25T05:33:02.500Z,2.86
2023-02-25T05:35:32.653Z,2.83
2023-02-25T05:38:01.086Z,2.83
2023-02-25T05:40:29.269Z,2.87
2023-02-25T05:42:57.428Z,2.84
2023-02-25T05:45:25.765Z,2.83
2023-02-25T05:47:55.805Z,2.88
2023-02-25T05:50:24.317Z,2.84
2023-02-25T05:52:52.937Z,2.85
2023-02-25T05:55:21.556Z,2.90
2023-02-25T05:57:49.859Z,2.87
2023-02-25T06:00:21.573Z,2.85
2023-02-25T06:02:50.524Z,2.91
2023-02-25T06:05:19.030Z,2.91
2023-02-25T06:07:48.869Z,2.87
2023-02-25T06:10:18.210Z,2.92
2023-02-25T06:12:46.658Z,2.92
2023-02-25T06:15:15.823Z,2.86
2023-02-25T06:17:44.084Z,2.90
2023-02-25T06:20:16.611Z,2.98
2023-02-25T06:22:44.975Z,2.97
2023-02-25T06:25:13.121Z,2.95
2023-02-25T06:27:41.500Z,3.05
2023-02-25T06:30:12.260Z,3.09
2023-02-25T06:32:40.967Z,3.06
2023-02-25T06:35:09.871Z,3.14
2023-02-25T06:37:40.061Z,3.21
2023-02-25T06:40:09.706Z,3.18
2023-02-25T06:42:38.716Z,3.18
2023-02-25T06:45:09.493Z,3.27
2023-02-25T06:47:38.292Z,3.35
2023-02-25T06:50:07.473Z,3.33
2023-02-25T06:52:35.688Z,3.36
2023-02-25T06:55:07.058Z,3.45
2023-02-25T06:57:35.499Z,3.46
2023-02-25T07:00:05.820Z,3.46
2023-02-25T07:02:35.669Z,3.58
2023-02-25T07:05:06.232Z,3.60
2023-02-25T07:07:35.440Z,3.58
2023-02-25T07:10:04.165Z,3.65
2023-02-25T07:12:38.444Z,3.72
2023-02-25T07:15:07.986Z,3.72
2023-02-25T07:17:37.696Z,3.68
2023-02-25T07:20:09.439Z,3.72
2023-02-25T07:22:38.545Z,3.69
2023-02-25T07:25:08.750Z,3.74
2023-02-25T07:27:43.599Z,3.84
2023-02-25T07:30:18.417Z,3.84
2023-02-25T07:32:47.876Z,3.86
2023-02-25T07:35:23.097Z,3.97
2023-02-25T07:37:52.745Z,4.03
2023-02-25T07:40:22.796Z,4.06
2023-02-25T07:42:51.663Z,4.15
2023-02-25T07:45:25.124Z,4.17
2023-02-25T07:47:56.319Z,4.19
2023-02-25T07:50:29.153Z,4.33
2023-02-25T07:52:57.328Z,4.42
2023-02-25T07:55:26.235Z,4.39
2023-02-25T07:57:56.131Z,4.44
2023-02-25T08:00:24.299Z,4.55
2023-02-25T08:02:53.620Z,4.59
2023-02-25T08:05:24.882Z,4.54
2023-02-25T08:07:56.626Z,4.58
2023-02-25T08:10:25.040Z,4.69
2023-02-25T08:12:59.200Z,4.77
2023-02-25T08:17:03.054Z,4.79
2023-02-25T08:19:31.997Z,4.81
2023-02-25T08:22:00.635Z,4.84
2023-02-25T08:24:29.849Z,4.78
2023-02-25T08:26:58.333Z,4.78
2023-02-25T08:29:26.233Z,4.81
2023-02-25T08:31:54.350Z,4.77
2023-02-25T08:34:22.559Z,4.75
2023-02-25T08:36:50.484Z,4.82
2023-02-25T08:39:18.537Z,4.86
2023-02-25T08:41:47.673Z,4.84
2023-02-25T08:44:15.664Z,4.85
2023-02-25T08:46:43.862Z,4.98
2023-02-25T08:49:12.055Z,5.08
2023-02-25T08:51:40.857Z,5.11
2023-02-25T08:54:12.427Z,5.27
2023-02-25T08:56:44.583Z,5.44
2023-02-25T08:59:15.148Z,5.48
2023-02-25T09:01:46.245Z,5.50
2023-02-25T09:04:19.846Z,5.66
2023-02-25T09:06:49.152Z,5.88
2023-02-25T09:09:17.915Z,5.99
2023-02-25T09:11:46.152Z,6.11
2023-02-25T09:14:16.649Z,6.36
2023-02-25T09:16:44.699Z,6.53
2023-02-25T09:19:15.673Z,6.65
2023-02-25T09:21:50.459Z,6.80
2023-02-25T09:24:19.788Z,7.05
2023-02-25T09:26:48.294Z,7.22
2023-02-25T09:29:17.356Z,7.42
2023-02-25T09:31:46.043Z,7.74
2023-02-25T09:34:15.851Z,8.09
2023-02-25T09:36:44.570Z,8.29
2023-02-25T09:39:13.418Z,8.41
2023-02-25T09:42:01.478Z,8.57
2023-02-25T09:44:36.710Z,8.72
2023-02-25T09:47:19.667Z,9.02
2023-02-25T09:49:56.580Z,9.39
2023-02-25T09:52:32.095Z,9.66
2023-02-25T09:55:16.686Z,9.89
2023-02-25T09:58:20.128Z,10.16
2023-02-25T10:00:55.592Z,10.45
2023-02-25T10:03:57.228Z,10.74
2023-02-25T10:06:39.216Z,11.11
2023-02-25T10:09:17.803Z,11.40
2023-02-25T10:11:54.269Z,11.52
2023-02-25T10:14:32.110Z,11.72
2023-02-25T10:17:18.438Z,12.03
2023-02-25T10:20:05.784Z,12.56
2023-02-25T10:23:16.330Z,12.96
2023-02-25T10:25:52.918Z,13.14
2023-02-25T10:28:21.709Z,13.25
2023-02-25T10:31:04.043Z,13.25
2023-02-25T10:33:37.962Z,13.07
2023-02-25T10:36:16.554Z,12.88
2023-02-25T10:38:47.101Z,12.73
2023-02-25T10:41:15.875Z,12.76
2023-02-25T10:43:45.456Z,12.89
2023-02-25T10:46:17.721Z,13.14
2023-02-25T10:49:00.736Z,13.65
2023-02-25T10:51:30.434Z,14.20
2023-02-25T10:53:58.492Z,14.33
2023-02-25T10:56:31.321Z,14.28
2023-02-25T10:59:19.992Z,14.30
2023-02-25T11:01:50.784Z,14.43
2023-02-25T11:04:23.727Z,14.60
2023-02-25T11:06:53.302Z,14.62
2023-02-25T11:09:21.298Z,14.43
2023-02-25T11:11:56.364Z,14.05
2023-02-25T11:14:28.753Z,13.62
2023-02-25T11:17:16.254Z,13.09
2023-02-25T11:19:58.447Z,12.48
2023-02-25T11:22:40.052Z,11.90
2023-02-25T11:25:15.808Z,11.42
2023-02-25T11:27:45.175Z,11.05
2023-02-25T11:30:25.874Z,10.76
2023-02-25T11:32:55.249Z,10.48
2023-02-25T11:35:30.032Z,10.22
2023-02-25T11:37:59.185Z,10.05
2023-02-25T11:40:34.009Z,9.98
2023-02-25T11:43:33.559Z,9.92
2023-02-25T11:46:17.709Z,9.79
2023-02-25T11:48:51.142Z,9.74
2023-02-25T11:51:28.417Z,9.74
2023-02-25T11:54:03.100Z,9.77
2023-02-25T11:56:34.633Z,9.94
2023-02-25T11:59:16.890Z,10.11
2023-02-25T12:02:03.505Z,10.05
2023-02-25T12:05:00.605Z,9.92
2023-02-25T12:07:35.790Z,9.83
2023-02-25T12:10:41.575Z,9.76
2023-02-25T12:13:24.935Z,9.72
2023-02-25T12:16:29.986Z,9.74
2023-02-25T12:19:29.355Z,9.60
2023-02-25T12:22:34.623Z,9.45
2023-02-25T12:25:05.542Z,9.27
2023-02-25T12:28:08.448Z,9.16
2023-02-25T12:31:01.675Z,9.17
2023-02-25T12:33:57.777Z,9.11
2023-02-25T12:36:34.103Z,9.04
2023-02-25T12:39:06.141Z,8.98
2023-02-25T12:41:58.779Z,8.94
2023-02-25T12:44:27.765Z,8.99
2023-02-25T12:47:05.101Z,8.94
2023-02-25T12:50:16.345Z,8.86
2023-02-25T12:53:03.553Z,8.81
2023-02-25T12:56:00.351Z,8.83
2023-02-25T12:58:56.452Z,8.93
2023-02-25T13:01:41.725Z,8.89
2023-02-25T13:04:31.623Z,8.82
2023-02-25T13:07:14.831Z,8.74
2023-02-25T13:09:50.999Z,8.74
2023-02-25T13:12:28.529Z,8.80
2023-02-25T13:15:12.852Z,8.81
2023-02-25T13:18:07.209Z,8.79
2023-02-25T13:21:17.210Z,8.80
2023-02-25T13:24:11.139Z,8.91
2023-02-25T13:26:55.155Z,8.91
2023-02-25T13:29:55.345Z,8.89
2023-02-25T13:32:29.190Z,8.86
2023-02-25T13:35:09.867Z,8.89
2023-02-25T13:37:49.971Z,8.94
2023-02-25T13:40:40.171Z,8.88
2023-02-25T13:43:34.169Z,8.78
2023-02-25T13:46:05.474Z,8.71
2023-02-25T13:48:39.291Z,8.71
2023-02-25T13:51:42.234Z,8.75
2023-02-25T13:54:22.761Z,8.70
2023-02-25T13:57:05.706Z,8.65
2023-02-25T13:59:44.030Z,8.62
2023-02-25T14:02:41.841Z,8.68
2023-02-25T14:05:31.482Z,8.70
2023-02-25T14:08:32.840Z,8.65
2023-02-25T14:11:19.867Z,8.58
2023-02-25T14:14:06.431Z,8.58
2023-02-25T14:16:42.866Z,8.64
2023-02-25T14:19:42.301Z,8.60
2023-02-25T14:22:36.187Z,8.53
2023-02-25T14:25:28.649Z,8.46
2023-02-25T14:28:22.904Z,8.50
2023-02-25T14:31:10.367Z,8.43
2023-02-25T14:34:11.969Z,8.36
2023-02-25T14:36:47.465Z,8.32
2023-02-25T14:39:41.309Z,8.41
2023-02-25T14:42:21.947Z,8.43
2023-02-25T14:45:05.682Z,8.38
2023-02-25T14:47:48.056Z,8.31
2023-02-25T14:50:52.316Z,8.26
2023-02-25T14:53:58.456Z,8.33
2023-02-25T14:56:46.330Z,8.29
2023-02-25T14:59:52.136Z,8.21
2023-02-25T15:02:35.488Z,8.16
2023-02-25T15:05:12.925Z,8.22
2023-02-25T15:08:02.695Z,8.19
2023-02-25T15:10:41.709Z,8.12
2023-02-25T15:13:29.499Z,8.08
2023-02-25T15:16:20.920Z,8.16
2023-02-25T15:18:55.467Z,8.15
2023-02-25T15:21:32.421Z,8.08
2023-02-25T15:24:01.127Z,8.04
2023-02-25T15:26:41.403Z,8.10
2023-02-25T15:29:28.281Z,8.12
2023-02-25T15:32:25.058Z,8.07
2023-02-25T15:34:56.358Z,8.03
2023-02-25T15:37:31.735Z,8.11
2023-02-25T15:40:16.141Z,8.13
2023-02-25T15:42:46.525Z,8.08
2023-02-25T15:45:27.317Z,8.07
2023-02-25T15:48:08.087Z,8.17
2023-02-25T15:50:42.385Z,8.24
2023-02-25T15:53:23.579Z,8.23
2023-02-25T15:56:07.393Z,8.25
2023-02-25T15:58:56.465Z,8.38
2023-02-25T16:01:29.639Z,8.39
2023-02-25T16:03:58.237Z,8.40
2023-02-25T16:06:33.375Z,8.32
2023-02-25T16:09:18.027Z,8.03
2023-02-25T16:11:53.714Z,7.61
2023-02-25T16:14:37.754Z,7.32
2023-02-25T16:17:11.717Z,7.11
2023-02-25T16:19:43.477Z,6.86
2023-02-25T16:22:16.414Z,6.60
2023-02-25T16:24:50.241Z,6.47
2023-02-25T16:27:35.108Z,6.37
2023-02-25T16:30:12.311Z,6.20
2023-02-25T16:33:20.693Z,6.09
2023-02-25T16:35:59.943Z,6.09
2023-02-25T16:38:56.325Z,6.03
2023-02-25T16:41:33.326Z,5.91
2023-02-25T16:44:07.100Z,5.85
2023-02-25T16:46:37.528Z,5.84
2023-02-25T16:49:11.337Z,5.76
2023-02-25T16:51:39.892Z,5.63
2023-02-25T16:54:15.440Z,5.59
2023-02-25T16:56:46.491Z,5.58
2023-02-25T16:59:14.613Z,5.52
2023-02-25T17:01:50.481Z,5.44
2023-02-25T17:04:24.817Z,5.47
2023-02-25T17:07:07.630Z,5.46
2023-02-25T17:09:36.382Z,5.36
2023-02-25T17:12:07.068Z,5.28
2023-02-25T17:14:35.595Z,5.35
2023-02-25T17:17:03.944Z,5.33
2023-02-25T17:19:36.689Z,5.20
2023-02-25T17:22:05.410Z,5.12
2023-02-25T17:24:33.666Z,5.01
2023-02-25T17:27:03.155Z,4.83
2023-02-25T17:29:35.470Z,4.72
2023-02-25T17:32:25.252Z,4.66
2023-02-25T17:34:59.858Z,4.49
2023-02-25T17:37:29.432Z,4.34
2023-02-25T17:39:57.571Z,4.25
2023-02-25T17:42:33.097Z,4.26
2023-02-25T17:45:02.138Z,4.25
2023-02-25T17:47:33.933Z,4.14
2023-02-25T17:50:25.695Z,4.01
2023-02-25T17:52:58.479Z,4.01
2023-02-25T17:55:28.729Z,3.99
2023-02-25T17:57:58.607Z,3.89
2023-02-25T18:00:29.643Z,3.86
2023-02-25T18:03:17.987Z,3.90
2023-02-25T18:05:53.654Z,3.94
2023-02-25T18:08:24.260Z,3.89
2023-02-25T18:11:02.396Z,3.84
2023-02-25T18:13:36.228Z,3.89
2023-02-25T18:16:32.292Z,3.92
2023-02-25T18:19:24.987Z,3.84
2023-02-25T18:21:53.428Z,3.78
2023-02-25T18:24:35.917Z,3.82
2023-02-25T18:27:07.570Z,3.86
2023-02-25T18:29:35.520Z,3.82
2023-02-25T18:32:05.280Z,3.77
2023-02-25T18:34:37.177Z,3.81
2023-02-25T18:37:14.861Z,3.83
2023-02-25T18:39:47.486Z,3.75
2023-02-25T18:42:18.673Z,3.73
2023-02-25T18:44:47.437Z,3.77
2023-02-25T18:47:16.887Z,3.74
2023-02-25T18:49:45.491Z,3.63
2023-02-25T18:52:22.124Z,3.61
2023-02-25T18:54:55.182Z,3.62
2023-02-25T18:57:27.142Z,3.57
2023-02-25T18:59:55.617Z,3.52
2023-02-25T19:02:35.199Z,3.57
2023-02-25T19:05:03.927Z,3.59
2023-02-25T19:07:34.569Z,3.54
2023-02-25T19:10:03.656Z,3.57
2023-02-25T19:12:33.894Z,3.62
2023-02-25T19:15:07.350Z,3.61
2023-02-25T19:17:37.370Z,3.56
2023-02-25T19:20:13.840Z,3.63
2023-02-25T19:22:50.532Z,3.68
2023-02-25T19:25:22.643Z,3.64
2023-02-25T19:27:52.424Z,3.61
2023-02-25T19:30:22.738Z,3.65
2023-02-25T19:33:04.333Z,3.68
2023-02-25T19:35:38.971Z,3.66
2023-02-25T19:38:20.147Z,3.58
2023-02-25T19:40:51.234Z,3.61
2023-02-25T19:43:19.414Z,3.65
2023-02-25T19:45:47.979Z,3.62
2023-02-25T19:48:16.971Z,3.59
2023-02-25T19:50:45.384Z,3.66
2023-02-25T19:53:14.543Z,3.71
2023-02-25T19:55:43.951Z,3.67
2023-02-25T19:58:12.255Z,3.60
2023-02-25T20:00:46.408Z,3.62
2023-02-25T20:03:15.399Z,3.62
2023-02-25T20:05:45.000Z,3.54
2023-02-25T20:08:13.806Z,3.50
2023-02-25T20:13:28.174Z,3.49
2023-02-25T20:16:01.392Z,3.42
2023-02-25T20:18:30.300Z,3.45
2023-02-25T20:21:01.464Z,3.42
2023-02-25T20:23:30.274Z,3.31
2023-02-25T20:26:10.592Z,3.31
2023-02-25T20:28:40.400Z,3.33
2023-02-25T20:31:12.123Z,3.22
2023-02-25T20:34:54.768Z,3.17
2023-02-25T20:37:24.786Z,3.18
2023-02-25T20:39:54.341Z,3.21
2023-02-25T20:42:24.678Z,3.13
2023-02-25T20:44:53.333Z,3.04
2023-02-25T20:47:27.266Z,3.07
2023-02-25T20:49:56.141Z,3.09
2023-02-25T20:52:29.990Z,3.02
2023-02-25T20:55:02.834Z,2.96
2023-02-25T20:57:33.454Z,3.03
2023-02-25T21:00:03.029Z,3.06
2023-02-25T21:02:31.953Z,2.99
2023-02-25T21:05:03.091Z,2.97
2023-02-25T21:07:31.963Z,3.03
2023-02-25T21:10:00.394Z,2.99
2023-02-25T21:12:29.290Z,2.96
2023-02-25T21:14:57.404Z,3.01
2023-02-25T21:17:26.258Z,3.02
2023-02-25T21:19:54.351Z,2.94
2023-02-25T21:22:26.254Z,2.93
2023-02-25T21:24:54.923Z,2.93
2023-02-25T21:27:24.203Z,2.85
2023-02-25T21:29:53.919Z,2.84
2023-02-25T21:32:22.738Z,2.81
2023-02-25T21:34:51.341Z,2.73
2023-02-25T21:37:19.886Z,2.72
2023-02-25T21:39:48.358Z,2.73
2023-02-25T21:42:22.891Z,2.69
2023-02-25T21:44:52.308Z,2.65
2023-02-25T21:47:25.927Z,2.67
2023-02-25T21:49:56.109Z,2.61
2023-02-25T21:52:26.212Z,2.58
2023-02-25T21:54:56.745Z,2.57
2023-02-25T21:57:27.764Z,2.53
2023-02-25T22:00:00.321Z,2.46
2023-02-25T22:02:30.482Z,2.47
2023-02-25T22:05:01.078Z,2.47
2023-02-25T22:07:30.735Z,2.41
2023-02-25T22:09:59.205Z,2.34
2023-02-25T22:12:27.694Z,2.34
2023-02-25T22:15:00.799Z,2.27
2023-02-25T22:17:29.639Z,2.24
2023-02-25T22:19:58.639Z,2.21
2023-02-25T22:22:26.819Z,2.13
2023-02-25T22:24:56.031Z,2.14
2023-02-25T22:27:24.280Z,2.15
2023-02-25T22:29:52.352Z,2.07
2023-02-25T22:32:21.399Z,2.07
2023-02-25T22:34:51.556Z,2.08
2023-02-25T22:37:19.755Z,2.07
2023-02-25T22:39:48.478Z,2.00
2023-02-25T22:42:16.742Z,2.00
2023-02-25T22:44:44.836Z,2.04
2023-02-25T22:47:13.158Z,2.02
2023-02-25T22:49:41.620Z,1.95
2023-02-25T22:52:09.551Z,2.00
2023-02-25T22:54:37.857Z,1.99
2023-02-25T22:57:06.218Z,1.90
2023-02-25T22:59:34.184Z,1.88
2023-02-25T23:02:03.154Z,1.91
2023-02-25T23:04:33.833Z,1.90
2023-02-25T23:07:02.331Z,1.83
2023-02-25T23:09:30.736Z,1.83
2023-02-25T23:12:02.987Z,1.83
2023-02-25T23:14:31.252Z,1.74
2023-02-25T23:16:59.791Z,1.71
2023-02-25T23:19:31.469Z,1.72
2023-02-25T23:21:59.850Z,1.70
2023-02-25T23:24:27.981Z,1.69
2023-02-25T23:27:01.234Z,1.65
2023-02-25T23:29:29.570Z,1.58
2023-02-25T23:31:58.280Z,1.59
2023-02-25T23:34:26.484Z,1.60
2023-02-25T23:36:55.923Z,1.60
2023-02-25T23:39:25.755Z,1.58
2023-02-25T23:41:53.876Z,1.51
2023-02-25T23:44:23.472Z,1.50
2023-02-25T23:46:55.215Z,1.52
2023-02-25T23:49:23.558Z,1.49
2023-02-25T23:51:52.663Z,1.42
2023-02-25T23:54:21.766Z,1.41
2023-02-25T23:56:51.434Z,1.42
2023-02-25T23:59:22.695Z,1.40
